sensor_id;sensor_type;location;lat;lon;timestamp;temperature;humidity
19363;DHT22;9817;50.80926400;5.16316200;2022-07-23T00:00:49;18.90;99.90
19363;DHT22;9817;50.80926400;5.16316200;2022-07-23T00:03:15;18.90;99.90
19363;DHT22;9817;50.80926400;5.16316200;2022-07-23T00:05:41;18.90;99.90
19363;DHT22;9817;50.80926400;5.16316200;2022-07-23T00:08:07;18.90;99.90
19363;DHT22;9817;50.80926400;5.16316200;2022-07-23T00:10:34;18.80;99.90
19363;DHT22;9817;50.80926400;5.16316200;2022-07-23T00:12:59;18.90;99.90
19363;DHT22;9817;50.80926400;5.16316200;2022-07-23T00:15:25;18.80;99.90
19363;DHT22;9817;50.80926400;5.16316200;2022-07-23T00:17:51;18.80;99.90
19363;DHT22;9817;50.80926400;5.16316200;2022-07-23T00:20:17;18.80;99.90
19363;DHT22;9817;50.80926400;5.16316200;2022-07-23T00:22:50;18.80;99.90
19363;DHT22;9817;50.80926400;5.16316200;2022-07-23T00:25:16;18.80;99.90
19363;DHT22;9817;50.80926400;5.16316200;2022-07-23T00:27:42;18.70;99.90
19363;DHT22;9817;50.80926400;5.16316200;2022-07-23T00:30:08;18.70;99.90
19363;DHT22;9817;50.80926400;5.16316200;2022-07-23T00:32:55;18.60;99.90
19363;DHT22;9817;50.80926400;5.16316200;2022-07-23T00:35:25;18.60;99.90
19363;DHT22;9817;50.80926400;5.16316200;2022-07-23T00:37:51;18.50;99.90
19363;DHT22;9817;50.80926400;5.16316200;2022-07-23T00:40:17;18.50;99.90
19363;DHT22;9817;50.80926400;5.16316200;2022-07-23T00:42:43;18.50;99.90
19363;DHT22;9817;50.80926400;5.16316200;2022-07-23T00:45:09;18.50;99.90
19363;DHT22;9817;50.80926400;5.16316200;2022-07-23T00:47:35;18.50;99.90
19363;DHT22;9817;50.80926400;5.16316200;2022-07-23T00:50:01;18.50;99.90
19363;DHT22;9817;50.80926400;5.16316200;2022-07-23T00:52:28;18.40;99.90
19363;DHT22;9817;50.80926400;5.16316200;2022-07-23T00:54:53;18.40;99.90
19363;DHT22;9817;50.80926400;5.16316200;2022-07-23T00:57:19;18.40;99.90
19363;DHT22;9817;50.80926400;5.16316200;2022-07-23T00:59:45;18.40;99.90
19363;DHT22;9817;50.80926400;5.16316200;2022-07-23T01:02:11;18.40;99.90
19363;DHT22;9817;50.80926400;5.16316200;2022-07-23T01:04:36;18.50;99.90
19363;DHT22;9817;50.80926400;5.16316200;2022-07-23T01:07:02;18.40;99.90
19363;DHT22;9817;50.80926400;5.16316200;2022-07-23T01:09:28;18.40;99.90
19363;DHT22;9817;50.80926400;5.16316200;2022-07-23T01:11:56;18.30;99.90
19363;DHT22;9817;50.80926400;5.16316200;2022-07-23T01:14:22;18.30;99.90
19363;DHT22;9817;50.80926400;5.16316200;2022-07-23T01:16:49;18.30;99.90
19363;DHT22;9817;50.80926400;5.16316200;2022-07-23T01:19:16;18.20;99.90
19363;DHT22;9817;50.80926400;5.16316200;2022-07-23T01:21:44;18.20;99.90
19363;DHT22;9817;50.80926400;5.16316200;2022-07-23T01:24:10;18.20;99.90
19363;DHT22;9817;50.80926400;5.16316200;2022-07-23T01:26:37;18.20;99.90
19363;DHT22;9817;50.80926400;5.16316200;2022-07-23T01:29:03;18.10;99.90
19363;DHT22;9817;50.80926400;5.16316200;2022-07-23T01:31:29;18.10;99.90
19363;DHT22;9817;50.80926400;5.16316200;2022-07-23T01:33:55;18.10;99.90
19363;DHT22;9817;50.80926400;5.16316200;2022-07-23T01:36:21;18.00;99.90
19363;DHT22;9817;50.80926400;5.16316200;2022-07-23T01:38:47;18.00;99.90
19363;DHT22;9817;50.80926400;5.16316200;2022-07-23T01:41:13;18.00;99.90
19363;DHT22;9817;50.80926400;5.16316200;2022-07-23T01:43:38;18.00;99.90
19363;DHT22;9817;50.80926400;5.16316200;2022-07-23T01:46:04;18.00;99.90
19363;DHT22;9817;50.80926400;5.16316200;2022-07-23T01:48:30;18.00;99.90
19363;DHT22;9817;50.80926400;5.16316200;2022-07-23T01:50:55;17.90;99.90
19363;DHT22;9817;50.80926400;5.16316200;2022-07-23T01:53:21;17.90;99.90
19363;DHT22;9817;50.80926400;5.16316200;2022-07-23T01:55:47;17.90;99.90
19363;DHT22;9817;50.80926400;5.16316200;2022-07-23T01:58:12;17.90;99.90
19363;DHT22;9817;50.80926400;5.16316200;2022-07-23T02:00:38;17.90;99.90
19363;DHT22;9817;50.80926400;5.16316200;2022-07-23T02:03:03;17.80;99.90
19363;DHT22;9817;50.80926400;5.16316200;2022-07-23T02:05:29;17.90;99.90
19363;DHT22;9817;50.80926400;5.16316200;2022-07-23T02:07:57;17.80;99.90
19363;DHT22;9817;50.80926400;5.16316200;2022-07-23T02:10:23;17.80;99.90
19363;DHT22;9817;50.80926400;5.16316200;2022-07-23T02:12:49;17.80;99.90
19363;DHT22;9817;50.80926400;5.16316200;2022-07-23T02:15:14;17.80;99.90
19363;DHT22;9817;50.80926400;5.16316200;2022-07-23T02:17:40;17.70;99.90
19363;DHT22;9817;50.80926400;5.16316200;2022-07-23T02:20:08;17.70;99.90
19363;DHT22;9817;50.80926400;5.16316200;2022-07-23T02:22:34;17.80;99.90
19363;DHT22;9817;50.80926400;5.16316200;2022-07-23T02:25:00;17.80;99.90
19363;DHT22;9817;50.80926400;5.16316200;2022-07-23T02:27:26;17.80;99.90
19363;DHT22;9817;50.80926400;5.16316200;2022-07-23T02:29:53;17.70;99.90
19363;DHT22;9817;50.80926400;5.16316200;2022-07-23T02:32:19;17.70;99.90
19363;DHT22;9817;50.80926400;5.16316200;2022-07-23T02:34:47;17.70;99.90
19363;DHT22;9817;50.80926400;5.16316200;2022-07-23T02:37:13;17.70;99.90
19363;DHT22;9817;50.80926400;5.16316200;2022-07-23T02:39:39;17.60;99.90
19363;DHT22;9817;50.80926400;5.16316200;2022-07-23T02:42:04;17.60;99.90
19363;DHT22;9817;50.80926400;5.16316200;2022-07-23T02:44:30;17.60;99.90
19363;DHT22;9817;50.80926400;5.16316200;2022-07-23T02:46:56;17.60;99.90
19363;DHT22;9817;50.80926400;5.16316200;2022-07-23T02:49:21;17.60;99.90
19363;DHT22;9817;50.80926400;5.16316200;2022-07-23T02:51:47;17.50;99.90
19363;DHT22;9817;50.80926400;5.16316200;2022-07-23T02:54:12;17.60;99.90
19363;DHT22;9817;50.80926400;5.16316200;2022-07-23T02:56:38;17.60;99.90
19363;DHT22;9817;50.80926400;5.16316200;2022-07-23T02:59:04;17.50;99.90
19363;DHT22;9817;50.80926400;5.16316200;2022-07-23T03:01:29;17.50;99.90
19363;DHT22;9817;50.80926400;5.16316200;2022-07-23T03:03:55;17.30;99.90
19363;DHT22;9817;50.80926400;5.16316200;2022-07-23T03:06:20;17.40;99.90
19363;DHT22;9817;50.80926400;5.16316200;2022-07-23T03:08:46;17.40;99.90
19363;DHT22;9817;50.80926400;5.16316200;2022-07-23T03:11:12;17.30;99.90
19363;DHT22;9817;50.80926400;5.16316200;2022-07-23T03:13:38;17.40;99.90
19363;DHT22;9817;50.80926400;5.16316200;2022-07-23T03:16:04;17.30;99.90
19363;DHT22;9817;50.80926400;5.16316200;2022-07-23T03:18:30;17.30;99.90
19363;DHT22;9817;50.80926400;5.16316200;2022-07-23T03:20:56;17.20;99.90
19363;DHT22;9817;50.80926400;5.16316200;2022-07-23T03:23:21;17.10;99.90
19363;DHT22;9817;50.80926400;5.16316200;2022-07-23T03:25:47;17.00;99.90
19363;DHT22;9817;50.80926400;5.16316200;2022-07-23T03:28:17;16.90;99.90
19363;DHT22;9817;50.80926400;5.16316200;2022-07-23T03:30:47;16.90;99.90
19363;DHT22;9817;50.80926400;5.16316200;2022-07-23T03:33:16;16.90;99.90
19363;DHT22;9817;50.80926400;5.16316200;2022-07-23T03:35:43;16.90;99.90
19363;DHT22;9817;50.80926400;5.16316200;2022-07-23T03:38:09;17.00;99.90
19363;DHT22;9817;50.80926400;5.16316200;2022-07-23T03:40:35;17.00;99.90
19363;DHT22;9817;50.80926400;5.16316200;2022-07-23T03:43:01;17.00;99.90
19363;DHT22;9817;50.80926400;5.16316200;2022-07-23T03:45:27;16.80;99.90
19363;DHT22;9817;50.80926400;5.16316200;2022-07-23T03:47:53;16.80;99.90
19363;DHT22;9817;50.80926400;5.16316200;2022-07-23T03:50:18;16.90;99.90
19363;DHT22;9817;50.80926400;5.16316200;2022-07-23T03:52:44;16.90;99.90
19363;DHT22;9817;50.80926400;5.16316200;2022-07-23T03:55:10;16.90;99.90
19363;DHT22;9817;50.80926400;5.16316200;2022-07-23T03:57:36;16.90;99.90
19363;DHT22;9817;50.80926400;5.16316200;2022-07-23T04:00:03;16.80;99.90
19363;DHT22;9817;50.80926400;5.16316200;2022-07-23T04:02:30;16.80;99.90
19363;DHT22;9817;50.80926400;5.16316200;2022-07-23T04:04:56;16.80;99.90
19363;DHT22;9817;50.80926400;5.16316200;2022-07-23T04:07:21;16.80;99.90
19363;DHT22;9817;50.80926400;5.16316200;2022-07-23T04:09:47;16.80;99.90
19363;DHT22;9817;50.80926400;5.16316200;2022-07-23T04:12:13;16.80;99.90
19363;DHT22;9817;50.80926400;5.16316200;2022-07-23T04:14:39;16.90;99.90
19363;DHT22;9817;50.80926400;5.16316200;2022-07-23T04:17:04;16.90;99.90
19363;DHT22;9817;50.80926400;5.16316200;2022-07-23T04:19:30;16.90;99.90
19363;DHT22;9817;50.80926400;5.16316200;2022-07-23T04:21:56;16.80;99.90
19363;DHT22;9817;50.80926400;5.16316200;2022-07-23T04:24:22;16.90;99.90
19363;DHT22;9817;50.80926400;5.16316200;2022-07-23T04:26:47;17.00;99.90
19363;DHT22;9817;50.80926400;5.16316200;2022-07-23T04:29:13;17.10;99.90
19363;DHT22;9817;50.80926400;5.16316200;2022-07-23T04:31:39;17.10;99.90
19363;DHT22;9817;50.80926400;5.16316200;2022-07-23T04:34:04;17.10;99.90
19363;DHT22;9817;50.80926400;5.16316200;2022-07-23T04:36:30;17.10;99.90
19363;DHT22;9817;50.80926400;5.16316200;2022-07-23T04:38:56;17.20;99.90
19363;DHT22;9817;50.80926400;5.16316200;2022-07-23T04:41:21;17.30;99.90
19363;DHT22;9817;50.80926400;5.16316200;2022-07-23T04:43:47;17.20;99.90
19363;DHT22;9817;50.80926400;5.16316200;2022-07-23T04:46:13;17.30;99.90
19363;DHT22;9817;50.80926400;5.16316200;2022-07-23T04:48:39;17.40;99.90
19363;DHT22;9817;50.80926400;5.16316200;2022-07-23T04:51:05;17.40;99.90
19363;DHT22;9817;50.80926400;5.16316200;2022-07-23T04:53:30;17.50;99.90
19363;DHT22;9817;50.80926400;5.16316200;2022-07-23T04:55:56;17.50;99.90
19363;DHT22;9817;50.80926400;5.16316200;2022-07-23T04:58:22;17.50;99.90
19363;DHT22;9817;50.80926400;5.16316200;2022-07-23T05:00:47;17.60;99.90
19363;DHT22;9817;50.80926400;5.16316200;2022-07-23T05:03:13;17.60;99.90
19363;DHT22;9817;50.80926400;5.16316200;2022-07-23T05:05:39;17.70;99.90
19363;DHT22;9817;50.80926400;5.16316200;2022-07-23T05:08:05;17.70;99.90
19363;DHT22;9817;50.80926400;5.16316200;2022-07-23T05:10:31;17.80;99.90
19363;DHT22;9817;50.80926400;5.16316200;2022-07-23T05:12:56;17.80;99.90
19363;DHT22;9817;50.80926400;5.16316200;2022-07-23T05:15:23;17.90;99.90
19363;DHT22;9817;50.80926400;5.16316200;2022-07-23T05:17:49;17.90;99.90
19363;DHT22;9817;50.80926400;5.16316200;2022-07-23T05:20:14;18.00;99.90
19363;DHT22;9817;50.80926400;5.16316200;2022-07-23T05:22:40;18.20;99.90
19363;DHT22;9817;50.80926400;5.16316200;2022-07-23T05:25:06;18.20;99.90
19363;DHT22;9817;50.80926400;5.16316200;2022-07-23T05:27:32;18.30;99.90
19363;DHT22;9817;50.80926400;5.16316200;2022-07-23T05:29:58;18.30;99.90
19363;DHT22;9817;50.80926400;5.16316200;2022-07-23T05:32:24;18.30;99.90
19363;DHT22;9817;50.80926400;5.16316200;2022-07-23T05:34:50;18.50;99.90
19363;DHT22;9817;50.80926400;5.16316200;2022-07-23T05:37:16;18.60;99.90
19363;DHT22;9817;50.80926400;5.16316200;2022-07-23T05:39:41;18.70;99.90
19363;DHT22;9817;50.80926400;5.16316200;2022-07-23T05:42:07;18.80;99.90
19363;DHT22;9817;50.80926400;5.16316200;2022-07-23T05:44:33;18.90;99.90
19363;DHT22;9817;50.80926400;5.16316200;2022-07-23T05:46:59;19.00;99.90
19363;DHT22;9817;50.80926400;5.16316200;2022-07-23T05:49:24;19.10;99.90
19363;DHT22;9817;50.80926400;5.16316200;2022-07-23T05:51:50;19.10;99.90
19363;DHT22;9817;50.80926400;5.16316200;2022-07-23T05:54:16;19.20;99.90
19363;DHT22;9817;50.80926400;5.16316200;2022-07-23T05:56:41;19.40;99.90
19363;DHT22;9817;50.80926400;5.16316200;2022-07-23T05:59:07;19.60;99.90
19363;DHT22;9817;50.80926400;5.16316200;2022-07-23T06:01:33;19.80;99.90
19363;DHT22;9817;50.80926400;5.16316200;2022-07-23T06:03:59;20.00;99.90
19363;DHT22;9817;50.80926400;5.16316200;2022-07-23T06:06:24;20.00;99.90
19363;DHT22;9817;50.80926400;5.16316200;2022-07-23T06:08:50;20.20;99.90
19363;DHT22;9817;50.80926400;5.16316200;2022-07-23T06:11:16;20.10;99.90
19363;DHT22;9817;50.80926400;5.16316200;2022-07-23T06:13:41;20.20;99.90
19363;DHT22;9817;50.80926400;5.16316200;2022-07-23T06:16:07;20.20;99.90
19363;DHT22;9817;50.80926400;5.16316200;2022-07-23T06:18:33;20.30;99.90
19363;DHT22;9817;50.80926400;5.16316200;2022-07-23T06:20:58;20.40;99.90
19363;DHT22;9817;50.80926400;5.16316200;2022-07-23T06:23:24;20.60;99.90
19363;DHT22;9817;50.80926400;5.16316200;2022-07-23T06:25:49;21.10;99.90
19363;DHT22;9817;50.80926400;5.16316200;2022-07-23T06:28:15;21.50;99.90
19363;DHT22;9817;50.80926400;5.16316200;2022-07-23T06:30:41;21.80;99.90
19363;DHT22;9817;50.80926400;5.16316200;2022-07-23T06:33:06;21.90;99.90
19363;DHT22;9817;50.80926400;5.16316200;2022-07-23T06:35:32;22.10;99.90
19363;DHT22;9817;50.80926400;5.16316200;2022-07-23T06:37:59;22.30;99.90
19363;DHT22;9817;50.80926400;5.16316200;2022-07-23T06:40:25;22.10;99.90
19363;DHT22;9817;50.80926400;5.16316200;2022-07-23T06:42:51;22.20;99.90
19363;DHT22;9817;50.80926400;5.16316200;2022-07-23T06:45:16;22.50;99.90
19363;DHT22;9817;50.80926400;5.16316200;2022-07-23T06:47:42;22.70;99.90
19363;DHT22;9817;50.80926400;5.16316200;2022-07-23T06:50:08;22.70;99.90
19363;DHT22;9817;50.80926400;5.16316200;2022-07-23T06:52:34;22.70;99.90
19363;DHT22;9817;50.80926400;5.16316200;2022-07-23T06:54:59;22.80;99.90
19363;DHT22;9817;50.80926400;5.16316200;2022-07-23T06:57:25;22.50;99.90
19363;DHT22;9817;50.80926400;5.16316200;2022-07-23T06:59:51;22.50;99.90
19363;DHT22;9817;50.80926400;5.16316200;2022-07-23T07:02:17;22.50;99.90
19363;DHT22;9817;50.80926400;5.16316200;2022-07-23T07:04:42;22.20;99.90
19363;DHT22;9817;50.80926400;5.16316200;2022-07-23T07:07:08;22.20;99.90
19363;DHT22;9817;50.80926400;5.16316200;2022-07-23T07:09:33;22.20;99.90
19363;DHT22;9817;50.80926400;5.16316200;2022-07-23T07:11:59;22.20;99.90
19363;DHT22;9817;50.80926400;5.16316200;2022-07-23T07:14:25;22.30;99.90
19363;DHT22;9817;50.80926400;5.16316200;2022-07-23T07:16:50;22.30;99.90
19363;DHT22;9817;50.80926400;5.16316200;2022-07-23T07:19:16;22.40;99.90
19363;DHT22;9817;50.80926400;5.16316200;2022-07-23T07:21:41;22.50;99.90
19363;DHT22;9817;50.80926400;5.16316200;2022-07-23T07:24:07;22.60;99.90
19363;DHT22;9817;50.80926400;5.16316200;2022-07-23T07:26:33;22.70;99.90
19363;DHT22;9817;50.80926400;5.16316200;2022-07-23T07:28:59;22.60;99.90
19363;DHT22;9817;50.80926400;5.16316200;2022-07-23T07:31:25;22.60;99.90
19363;DHT22;9817;50.80926400;5.16316200;2022-07-23T07:33:51;22.70;99.90
19363;DHT22;9817;50.80926400;5.16316200;2022-07-23T07:36:16;22.80;99.90
19363;DHT22;9817;50.80926400;5.16316200;2022-07-23T07:38:42;22.70;99.90
19363;DHT22;9817;50.80926400;5.16316200;2022-07-23T07:41:08;22.80;99.90
19363;DHT22;9817;50.80926400;5.16316200;2022-07-23T07:43:35;22.70;99.90
19363;DHT22;9817;50.80926400;5.16316200;2022-07-23T07:46:01;23.60;99.90
19363;DHT22;9817;50.80926400;5.16316200;2022-07-23T07:48:27;26.40;99.90
19363;DHT22;9817;50.80926400;5.16316200;2022-07-23T07:50:53;29.80;99.90
19363;DHT22;9817;50.80926400;5.16316200;2022-07-23T07:53:18;32.90;99.90
19363;DHT22;9817;50.80926400;5.16316200;2022-07-23T07:55:44;35.40;95.60
19363;DHT22;9817;50.80926400;5.16316200;2022-07-23T07:58:11;37.20;90.90
19363;DHT22;9817;50.80926400;5.16316200;2022-07-23T08:00:36;38.80;83.70
19363;DHT22;9817;50.80926400;5.16316200;2022-07-23T08:03:02;40.00;75.90
19363;DHT22;9817;50.80926400;5.16316200;2022-07-23T08:05:29;40.20;71.10
19363;DHT22;9817;50.80926400;5.16316200;2022-07-23T08:07:56;40.10;70.90
19363;DHT22;9817;50.80926400;5.16316200;2022-07-23T08:10:22;40.20;67.90
19363;DHT22;9817;50.80926400;5.16316200;2022-07-23T08:12:50;40.90;65.80
19363;DHT22;9817;50.80926400;5.16316200;2022-07-23T08:15:18;41.70;62.90
19363;DHT22;9817;50.80926400;5.16316200;2022-07-23T08:17:45;42.20;60.80
19363;DHT22;9817;50.80926400;5.16316200;2022-07-23T08:20:13;42.80;59.10
19363;DHT22;9817;50.80926400;5.16316200;2022-07-23T08:25:08;43.80;57.30
19363;DHT22;9817;50.80926400;5.16316200;2022-07-23T08:27:34;44.00;54.10
19363;DHT22;9817;50.80926400;5.16316200;2022-07-23T08:30:00;44.50;54.60
19363;DHT22;9817;50.80926400;5.16316200;2022-07-23T08:32:25;44.90;53.40
19363;DHT22;9817;50.80926400;5.16316200;2022-07-23T08:34:51;44.90;51.80
19363;DHT22;9817;50.80926400;5.16316200;2022-07-23T08:37:16;44.60;52.20
19363;DHT22;9817;50.80926400;5.16316200;2022-07-23T08:39:42;43.00;52.90
19363;DHT22;9817;50.80926400;5.16316200;2022-07-23T08:42:08;42.70;53.80
19363;DHT22;9817;50.80926400;5.16316200;2022-07-23T08:44:35;42.70;52.60
19363;DHT22;9817;50.80926400;5.16316200;2022-07-23T08:47:01;42.90;51.80
19363;DHT22;9817;50.80926400;5.16316200;2022-07-23T08:49:28;43.40;51.90
19363;DHT22;9817;50.80926400;5.16316200;2022-07-23T08:51:54;44.00;50.50
19363;DHT22;9817;50.80926400;5.16316200;2022-07-23T08:54:21;44.40;50.00
19363;DHT22;9817;50.80926400;5.16316200;2022-07-23T08:56:48;44.80;48.70
19363;DHT22;9817;50.80926400;5.16316200;2022-07-23T08:59:14;45.10;48.50
19363;DHT22;9817;50.80926400;5.16316200;2022-07-23T09:01:39;45.30;48.10
19363;DHT22;9817;50.80926400;5.16316200;2022-07-23T09:04:05;45.60;48.80
19363;DHT22;9817;50.80926400;5.16316200;2022-07-23T09:06:31;45.60;48.20
19363;DHT22;9817;50.80926400;5.16316200;2022-07-23T09:08:56;45.60;47.20
19363;DHT22;9817;50.80926400;5.16316200;2022-07-23T09:11:22;45.20;47.00
19363;DHT22;9817;50.80926400;5.16316200;2022-07-23T09:13:49;44.70;48.40
19363;DHT22;9817;50.80926400;5.16316200;2022-07-23T09:16:20;44.90;47.80
19363;DHT22;9817;50.80926400;5.16316200;2022-07-23T09:19:00;45.20;47.50
19363;DHT22;9817;50.80926400;5.16316200;2022-07-23T09:24:02;45.70;45.50
19363;DHT22;9817;50.80926400;5.16316200;2022-07-23T09:26:37;45.90;45.60
19363;DHT22;9817;50.80926400;5.16316200;2022-07-23T09:29:06;46.10;45.10
19363;DHT22;9817;50.80926400;5.16316200;2022-07-23T09:34:11;45.90;45.70
19363;DHT22;9817;50.80926400;5.16316200;2022-07-23T09:36:37;46.10;45.60
19363;DHT22;9817;50.80926400;5.16316200;2022-07-23T09:39:03;45.40;45.80
19363;DHT22;9817;50.80926400;5.16316200;2022-07-23T09:41:55;45.30;45.50
19363;DHT22;9817;50.80926400;5.16316200;2022-07-23T09:44:21;45.30;45.70
19363;DHT22;9817;50.80926400;5.16316200;2022-07-23T09:46:49;44.70;45.80
19363;DHT22;9817;50.80926400;5.16316200;2022-07-23T09:49:17;44.90;46.00
19363;DHT22;9817;50.80926400;5.16316200;2022-07-23T09:51:52;44.90;46.00
19363;DHT22;9817;50.80926400;5.16316200;2022-07-23T09:54:27;44.80;45.80
19363;DHT22;9817;50.80926400;5.16316200;2022-07-23T09:56:55;44.90;46.50
19363;DHT22;9817;50.80926400;5.16316200;2022-07-23T09:59:35;44.50;45.80
19363;DHT22;9817;50.80926400;5.16316200;2022-07-23T10:02:01;44.20;46.00
19363;DHT22;9817;50.80926400;5.16316200;2022-07-23T10:04:29;44.00;45.40
19363;DHT22;9817;50.80926400;5.16316200;2022-07-23T10:06:58;44.20;46.50
19363;DHT22;9817;50.80926400;5.16316200;2022-07-23T10:09:33;44.50;46.30
19363;DHT22;9817;50.80926400;5.16316200;2022-07-23T10:12:02;44.20;45.40
19363;DHT22;9817;50.80926400;5.16316200;2022-07-23T10:14:49;44.00;46.50
19363;DHT22;9817;50.80926400;5.16316200;2022-07-23T10:17:16;43.80;45.50
19363;DHT22;9817;50.80926400;5.16316200;2022-07-23T10:19:42;44.00;46.20
19363;DHT22;9817;50.80926400;5.16316200;2022-07-23T10:22:11;44.00;45.50
19363;DHT22;9817;50.80926400;5.16316200;2022-07-23T10:33:32;40.80;48.80
19363;DHT22;9817;50.80926400;5.16316200;2022-07-23T10:36:19;39.90;50.60
19363;DHT22;9817;50.80926400;5.16316200;2022-07-23T10:38:56;39.10;52.20
19363;DHT22;9817;50.80926400;5.16316200;2022-07-23T10:41:43;38.00;50.90
19363;DHT22;9817;50.80926400;5.16316200;2022-07-23T10:44:14;37.00;53.40
19363;DHT22;9817;50.80926400;5.16316200;2022-07-23T10:49:41;35.60;56.50
19363;DHT22;9817;50.80926400;5.16316200;2022-07-23T10:52:26;35.10;56.70
19363;DHT22;9817;50.80926400;5.16316200;2022-07-23T10:54:55;34.70;57.90
19363;DHT22;9817;50.80926400;5.16316200;2022-07-23T10:57:26;34.00;58.00
19363;DHT22;9817;50.80926400;5.16316200;2022-07-23T11:02:29;33.00;61.20
19363;DHT22;9817;50.80926400;5.16316200;2022-07-23T11:05:06;32.90;61.80
19363;DHT22;9817;50.80926400;5.16316200;2022-07-23T11:07:33;32.70;63.60
19363;DHT22;9817;50.80926400;5.16316200;2022-07-23T11:09:59;32.10;59.70
19363;DHT22;9817;50.80926400;5.16316200;2022-07-23T11:15:09;31.80;61.40
19363;DHT22;9817;50.80926400;5.16316200;2022-07-23T11:17:38;31.50;64.40
19363;DHT22;9817;50.80926400;5.16316200;2022-07-23T11:27:47;31.70;64.80
19363;DHT22;9817;50.80926400;5.16316200;2022-07-23T11:30:40;31.60;62.90
19363;DHT22;9817;50.80926400;5.16316200;2022-07-23T11:35:39;31.40;62.30
19363;DHT22;9817;50.80926400;5.16316200;2022-07-23T11:38:06;31.40;59.80
19363;DHT22;9817;50.80926400;5.16316200;2022-07-23T11:40:33;31.50;63.00
19363;DHT22;9817;50.80926400;5.16316200;2022-07-23T11:43:05;31.30;61.00
19363;DHT22;9817;50.80926400;5.16316200;2022-07-23T11:45:43;31.20;64.20
19363;DHT22;9817;50.80926400;5.16316200;2022-07-23T11:48:18;31.40;65.20
19363;DHT22;9817;50.80926400;5.16316200;2022-07-23T11:50:44;31.40;62.70
19363;DHT22;9817;50.80926400;5.16316200;2022-07-23T11:53:10;31.20;61.50
19363;DHT22;9817;50.80926400;5.16316200;2022-07-23T11:55:36;31.10;61.90
19363;DHT22;9817;50.80926400;5.16316200;2022-07-23T11:58:02;31.10;64.80
19363;DHT22;9817;50.80926400;5.16316200;2022-07-23T12:00:29;31.00;60.40
19363;DHT22;9817;50.80926400;5.16316200;2022-07-23T12:03:02;30.90;62.70
19363;DHT22;9817;50.80926400;5.16316200;2022-07-23T12:05:31;30.50;64.40
19363;DHT22;9817;50.80926400;5.16316200;2022-07-23T12:07:58;30.40;63.40
19363;DHT22;9817;50.80926400;5.16316200;2022-07-23T12:10:29;30.70;65.40
19363;DHT22;9817;50.80926400;5.16316200;2022-07-23T12:13:00;30.60;62.60
19363;DHT22;9817;50.80926400;5.16316200;2022-07-23T12:15:27;30.60;62.80
19363;DHT22;9817;50.80926400;5.16316200;2022-07-23T12:17:54;30.60;63.60
19363;DHT22;9817;50.80926400;5.16316200;2022-07-23T12:20:24;31.00;64.40
19363;DHT22;9817;50.80926400;5.16316200;2022-07-23T12:22:52;31.00;65.20
19363;DHT22;9817;50.80926400;5.16316200;2022-07-23T12:25:20;31.00;66.70
19363;DHT22;9817;50.80926400;5.16316200;2022-07-23T12:27:57;31.00;67.70
19363;DHT22;9817;50.80926400;5.16316200;2022-07-23T12:30:29;30.80;66.70
19363;DHT22;9817;50.80926400;5.16316200;2022-07-23T12:32:58;30.50;67.30
19363;DHT22;9817;50.80926400;5.16316200;2022-07-23T12:35:31;30.70;66.50
19363;DHT22;9817;50.80926400;5.16316200;2022-07-23T12:38:01;30.80;66.80
19363;DHT22;9817;50.80926400;5.16316200;2022-07-23T12:40:36;31.10;67.50
19363;DHT22;9817;50.80926400;5.16316200;2022-07-23T12:43:03;31.20;66.10
19363;DHT22;9817;50.80926400;5.16316200;2022-07-23T12:56:09;30.90;65.70
19363;DHT22;9817;50.80926400;5.16316200;2022-07-23T12:58:48;31.00;68.40
19363;DHT22;9817;50.80926400;5.16316200;2022-07-23T13:01:33;31.00;68.00
19363;DHT22;9817;50.80926400;5.16316200;2022-07-23T13:09:06;30.80;63.90
19363;DHT22;9817;50.80926400;5.16316200;2022-07-23T13:11:32;30.90;70.70
19363;DHT22;9817;50.80926400;5.16316200;2022-07-23T13:13:58;31.00;66.90
19363;DHT22;9817;50.80926400;5.16316200;2022-07-23T13:16:26;31.10;68.30
19363;DHT22;9817;50.80926400;5.16316200;2022-07-23T13:18:52;31.30;69.30
19363;DHT22;9817;50.80926400;5.16316200;2022-07-23T13:21:18;31.30;68.90
19363;DHT22;9817;50.80926400;5.16316200;2022-07-23T13:23:43;30.90;63.50
19363;DHT22;9817;50.80926400;5.16316200;2022-07-23T13:26:09;30.70;64.40
19363;DHT22;9817;50.80926400;5.16316200;2022-07-23T13:28:35;30.60;63.40
19363;DHT22;9817;50.80926400;5.16316200;2022-07-23T13:31:00;30.70;66.80
19363;DHT22;9817;50.80926400;5.16316200;2022-07-23T13:33:26;30.90;65.80
19363;DHT22;9817;50.80926400;5.16316200;2022-07-23T13:35:53;31.00;69.30
19363;DHT22;9817;50.80926400;5.16316200;2022-07-23T13:38:20;31.00;64.60
19363;DHT22;9817;50.80926400;5.16316200;2022-07-23T13:40:47;30.90;63.10
19363;DHT22;9817;50.80926400;5.16316200;2022-07-23T13:43:14;30.90;66.20
19363;DHT22;9817;50.80926400;5.16316200;2022-07-23T13:45:41;31.00;67.90
19363;DHT22;9817;50.80926400;5.16316200;2022-07-23T13:48:11;31.10;69.10
19363;DHT22;9817;50.80926400;5.16316200;2022-07-23T13:50:37;31.20;66.80
19363;DHT22;9817;50.80926400;5.16316200;2022-07-23T13:53:06;31.30;66.90
19363;DHT22;9817;50.80926400;5.16316200;2022-07-23T13:55:33;31.50;65.30
19363;DHT22;9817;50.80926400;5.16316200;2022-07-23T13:58:00;31.40;64.60
19363;DHT22;9817;50.80926400;5.16316200;2022-07-23T14:00:27;31.40;65.10
19363;DHT22;9817;50.80926400;5.16316200;2022-07-23T14:02:52;31.20;66.80
19363;DHT22;9817;50.80926400;5.16316200;2022-07-23T14:05:18;31.10;68.40
19363;DHT22;9817;50.80926400;5.16316200;2022-07-23T14:07:44;30.90;67.60
19363;DHT22;9817;50.80926400;5.16316200;2022-07-23T14:10:12;30.80;67.70
19363;DHT22;9817;50.80926400;5.16316200;2022-07-23T14:12:38;30.70;67.00
19363;DHT22;9817;50.80926400;5.16316200;2022-07-23T14:15:05;30.80;66.50
19363;DHT22;9817;50.80926400;5.16316200;2022-07-23T14:17:32;31.00;67.90
19363;DHT22;9817;50.80926400;5.16316200;2022-07-23T14:19:58;30.90;68.30
19363;DHT22;9817;50.80926400;5.16316200;2022-07-23T14:22:24;31.10;67.90
19363;DHT22;9817;50.80926400;5.16316200;2022-07-23T14:24:50;31.30;69.10